createdAt,value
2019-01-31T00:01:11.061Z,3.52
2019-01-31T00:03:37.368Z,3.58
2019-01-31T00:06:03.677Z,3.54
2019-01-31T00:08:29.987Z,3.44
2019-01-31T00:10:56.291Z,3.37
2019-01-31T00:13:22.608Z,3.34
2019-01-31T00:15:48.919Z,3.30
2019-01-31T00:18:15.241Z,3.30
2019-01-31T00:20:41.561Z,3.40
2019-01-31T00:23:07.864Z,3.49
2019-01-31T00:25:34.776Z,3.46
2019-01-31T00:28:01.317Z,3.47
2019-01-31T00:30:27.629Z,3.55
2019-01-31T00:32:53.941Z,3.61
2019-01-31T00:35:20.285Z,3.53
2019-01-31T00:37:46.564Z,3.48
2019-01-31T00:40:12.873Z,3.52
2019-01-31T00:42:39.209Z,3.42
2019-01-31T00:45:05.525Z,3.35
2019-01-31T00:47:31.843Z,3.28
2019-01-31T00:49:58.277Z,3.32
2019-01-31T00:52:24.466Z,3.32
2019-01-31T00:54:50.778Z,3.31
2019-01-31T00:57:17.088Z,3.30
2019-01-31T00:59:43.398Z,3.26
2019-01-31T01:02:09.716Z,3.25
2019-01-31T01:04:36.012Z,3.23
2019-01-31T01:07:02.328Z,3.16
2019-01-31T01:09:28.643Z,3.16
2019-01-31T01:11:54.951Z,3.17
2019-01-31T01:14:21.261Z,3.20
2019-01-31T01:16:47.575Z,3.18
2019-01-31T01:19:13.880Z,3.18
2019-01-31T01:21:40.216Z,3.22
2019-01-31T01:24:06.515Z,3.12
2019-01-31T01:26:32.823Z,3.01
2019-01-31T01:28:59.132Z,2.92
2019-01-31T01:31:25.453Z,2.92
2019-01-31T01:33:51.762Z,2.97
2019-01-31T01:36:18.082Z,2.95
2019-01-31T01:38:44.390Z,2.93
2019-01-31T01:41:10.696Z,2.82
2019-01-31T01:43:37.013Z,2.76
2019-01-31T01:46:03.327Z,2.72
2019-01-31T01:48:29.635Z,2.80
2019-01-31T01:50:55.949Z,2.84
2019-01-31T01:53:22.265Z,2.76
2019-01-31T01:55:48.572Z,2.65
2019-01-31T02:00:58.817Z,2.59
2019-01-31T02:03:25.193Z,2.60
2019-01-31T02:05:51.500Z,2.60
2019-01-31T02:08:17.807Z,2.60
2019-01-31T02:10:44.115Z,2.64
2019-01-31T02:13:10.428Z,2.67
2019-01-31T02:15:36.738Z,2.69
2019-01-31T02:18:03.048Z,2.77
2019-01-31T02:20:29.360Z,2.70
2019-01-31T02:22:55.665Z,2.78
2019-01-31T02:25:21.993Z,2.73
2019-01-31T02:27:48.294Z,2.67
2019-01-31T02:30:14.648Z,2.72
2019-01-31T02:32:40.972Z,2.63
2019-01-31T02:35:07.278Z,2.59
2019-01-31T02:37:33.606Z,2.53
2019-01-31T02:39:59.918Z,2.55
2019-01-31T02:42:26.237Z,2.64
2019-01-31T02:44:52.538Z,2.67
2019-01-31T02:47:18.922Z,2.69
2019-01-31T02:49:45.163Z,2.71
2019-01-31T02:52:11.469Z,2.66
2019-01-31T02:54:37.791Z,2.66
2019-01-31T02:57:04.101Z,2.67
2019-01-31T02:59:30.404Z,2.72
2019-01-31T03:01:56.718Z,2.80
2019-01-31T03:04:23.028Z,2.81
2019-01-31T03:06:49.340Z,2.84
2019-01-31T03:09:15.645Z,2.95
2019-01-31T03:11:41.962Z,3.06
2019-01-31T03:14:10.302Z,3.09
2019-01-31T03:16:34.574Z,3.15
2019-01-31T03:19:00.888Z,3.17
2019-01-31T03:21:27.196Z,3.04
2019-01-31T03:23:53.510Z,3.00
2019-01-31T03:26:19.816Z,3.11
2019-01-31T03:28:46.130Z,3.16
2019-01-31T03:31:12.435Z,3.21
2019-01-31T03:33:38.752Z,3.25
2019-01-31T03:36:05.061Z,3.29
2019-01-31T03:38:31.363Z,3.34
2019-01-31T03:40:57.667Z,3.37
2019-01-31T03:43:23.985Z,3.39
2019-01-31T03:45:50.289Z,3.42
2019-01-31T03:48:16.598Z,3.48
2019-01-31T03:50:42.909Z,3.47
2019-01-31T03:53:09.224Z,3.41
2019-01-31T03:55:35.528Z,3.43
2019-01-31T03:58:01.839Z,3.42
2019-01-31T04:00:28.143Z,3.50
2019-01-31T04:02:54.453Z,3.60
2019-01-31T04:05:20.755Z,3.60
2019-01-31T04:07:47.118Z,3.28
2019-01-31T04:10:19.111Z,2.95
2019-01-31T04:12:39.732Z,2.88
2019-01-31T04:15:06.038Z,2.82
2019-01-31T04:17:32.363Z,2.65
2019-01-31T04:19:58.675Z,2.59
2019-01-31T04:22:24.994Z,2.52
2019-01-31T04:24:51.298Z,2.56
2019-01-31T04:27:17.674Z,2.61
2019-01-31T04:29:43.908Z,2.70
2019-01-31T04:32:10.251Z,2.66
2019-01-31T04:34:36.516Z,2.63
2019-01-31T04:37:02.844Z,2.61
2019-01-31T04:39:29.140Z,2.56
2019-01-31T04:41:55.446Z,2.57
2019-01-31T04:44:21.758Z,2.65
2019-01-31T04:46:48.064Z,2.66
2019-01-31T04:49:14.377Z,2.68
2019-01-31T04:51:40.681Z,2.62
2019-01-31T04:54:06.991Z,2.61
2019-01-31T04:56:33.297Z,2.60
2019-01-31T04:58:59.607Z,2.55
2019-01-31T05:01:26.612Z,2.50
2019-01-31T05:03:52.228Z,2.50
2019-01-31T05:06:18.537Z,2.47
2019-01-31T05:08:44.846Z,2.42
2019-01-31T05:11:11.157Z,2.43
2019-01-31T05:13:37.467Z,2.45
2019-01-31T05:16:04.102Z,2.52
2019-01-31T05:18:30.093Z,2.58
2019-01-31T05:20:56.395Z,2.63
2019-01-31T05:23:22.713Z,2.69
2019-01-31T05:25:49.016Z,2.74
2019-01-31T05:28:15.333Z,2.75
2019-01-31T05:30:41.776Z,2.76
2019-01-31T05:33:07.957Z,2.86
2019-01-31T05:35:34.269Z,2.93
2019-01-31T05:38:00.590Z,2.99
2019-01-31T05:40:26.889Z,3.05
2019-01-31T05:42:53.197Z,3.08
2019-01-31T05:45:19.503Z,3.10
2019-01-31T05:47:45.840Z,3.06
2019-01-31T05:50:12.149Z,3.12
2019-01-31T05:52:38.460Z,3.11
2019-01-31T05:55:04.766Z,3.10
2019-01-31T05:57:31.074Z,3.12
2019-01-31T05:59:57.398Z,3.19
2019-01-31T06:02:23.713Z,3.24
2019-01-31T06:04:50.079Z,3.37
2019-01-31T06:07:16.354Z,3.44
2019-01-31T06:09:42.657Z,3.55
2019-01-31T06:12:08.968Z,3.63
2019-01-31T06:14:35.314Z,3.66
2019-01-31T06:17:01.622Z,3.71
2019-01-31T06:19:27.931Z,3.77
2019-01-31T06:21:54.280Z,3.80
2019-01-31T06:24:20.581Z,3.93
2019-01-31T06:26:46.883Z,3.97
2019-01-31T06:29:13.206Z,3.91
2019-01-31T06:31:39.519Z,3.95
2019-01-31T06:34:05.835Z,3.92
2019-01-31T06:36:32.148Z,3.89
2019-01-31T06:38:58.463Z,3.95
2019-01-31T06:41:24.771Z,3.96
2019-01-31T06:43:51.080Z,4.01
2019-01-31T06:46:17.393Z,4.03
2019-01-31T06:48:43.701Z,4.17
2019-01-31T06:51:10.011Z,4.09
2019-01-31T06:53:36.320Z,4.05
2019-01-31T06:56:02.634Z,4.13
2019-01-31T06:58:28.956Z,4.19
2019-01-31T07:00:55.276Z,4.33
2019-01-31T07:03:21.586Z,4.49
2019-01-31T07:05:47.892Z,4.44
2019-01-31T07:08:14.206Z,4.39
2019-01-31T07:10:40.514Z,4.50
2019-01-31T07:13:06.822Z,5.08
2019-01-31T07:15:33.136Z,5.67
2019-01-31T07:17:59.446Z,5.33
2019-01-31T07:20:25.762Z,4.77
2019-01-31T07:22:52.080Z,4.46
2019-01-31T07:25:18.401Z,4.52
2019-01-31T07:27:44.714Z,4.61
2019-01-31T07:30:11.061Z,4.63
2019-01-31T07:32:37.337Z,4.55
2019-01-31T07:35:03.676Z,4.50
2019-01-31T07:37:30.041Z,4.47
2019-01-31T07:39:56.319Z,4.62
2019-01-31T07:42:22.624Z,4.63
2019-01-31T07:44:48.936Z,4.63
2019-01-31T07:47:15.250Z,4.67
2019-01-31T07:49:41.575Z,4.66
2019-01-31T07:52:07.883Z,4.60
2019-01-31T07:54:34.195Z,4.66
2019-01-31T07:57:00.503Z,4.77
2019-01-31T07:59:26.814Z,4.92
2019-01-31T08:01:53.128Z,5.60
2019-01-31T08:04:19.450Z,6.46
2019-01-31T08:06:45.758Z,7.32
2019-01-31T08:09:12.073Z,8.19
2019-01-31T08:11:38.394Z,8.56
2019-01-31T08:14:04.697Z,8.67
2019-01-31T08:16:31.016Z,9.12
2019-01-31T08:18:57.321Z,9.79
2019-01-31T08:21:23.653Z,9.30
2019-01-31T08:23:49.961Z,9.56
2019-01-31T08:26:16.268Z,9.97
2019-01-31T08:28:42.604Z,9.79
2019-01-31T08:31:08.877Z,9.95
2019-01-31T08:33:35.190Z,10.87
2019-01-31T08:36:01.500Z,10.26
2019-01-31T08:38:27.845Z,10.27
2019-01-31T08:40:54.119Z,10.35
2019-01-31T08:43:20.673Z,10.28
2019-01-31T08:45:46.751Z,10.22
2019-01-31T08:48:13.096Z,9.96
2019-01-31T08:50:39.395Z,10.22
2019-01-31T08:53:05.709Z,10.54
2019-01-31T08:58:16.225Z,10.76
2019-01-31T09:00:42.543Z,11.15
2019-01-31T09:03:08.855Z,11.17
2019-01-31T09:05:35.161Z,10.16
2019-01-31T09:08:01.472Z,9.80
2019-01-31T09:10:27.784Z,9.44
2019-01-31T09:12:54.114Z,9.36
2019-01-31T09:15:20.425Z,9.57
2019-01-31T09:17:46.733Z,9.48
2019-01-31T09:20:13.056Z,9.11
2019-01-31T09:22:39.371Z,8.76
2019-01-31T09:25:05.686Z,8.43
2019-01-31T09:27:31.990Z,8.58
2019-01-31T09:29:58.321Z,8.83
2019-01-31T09:32:24.635Z,9.40
2019-01-31T09:34:50.956Z,9.13
2019-01-31T09:37:17.269Z,8.93
2019-01-31T09:39:43.597Z,8.86
2019-01-31T09:42:09.903Z,8.78
2019-01-31T09:44:36.223Z,8.65
2019-01-31T09:47:02.532Z,8.25
2019-01-31T09:49:28.897Z,8.11
2019-01-31T09:51:55.213Z,8.10
2019-01-31T09:54:21.522Z,8.11
2019-01-31T09:56:47.835Z,7.98
2019-01-31T09:59:14.139Z,8.10
2019-01-31T10:01:40.457Z,8.21
2019-01-31T10:04:06.761Z,8.47
2019-01-31T10:06:33.073Z,8.69
2019-01-31T10:08:59.376Z,8.83
2019-01-31T10:11:25.765Z,9.26
2019-01-31T10:13:52.052Z,9.51
2019-01-31T10:16:18.308Z,9.58
2019-01-31T10:18:44.735Z,9.55
2019-01-31T10:21:10.995Z,9.38
2019-01-31T10:23:37.431Z,9.35
2019-01-31T10:26:03.608Z,9.45
2019-01-31T10:28:29.930Z,9.37
2019-01-31T10:30:56.232Z,9.31
2019-01-31T10:33:22.545Z,9.23
2019-01-31T10:35:48.861Z,9.29
2019-01-31T10:38:15.180Z,9.40
2019-01-31T10:40:41.477Z,9.33
2019-01-31T10:43:07.818Z,9.06
2019-01-31T10:45:34.119Z,9.14
2019-01-31T10:48:00.437Z,9.02
2019-01-31T10:50:26.741Z,9.06
2019-01-31T10:52:53.058Z,8.76
2019-01-31T10:55:19.367Z,8.78
2019-01-31T10:57:53.928Z,8.66
2019-01-31T11:00:14.895Z,8.59
2019-01-31T11:02:41.270Z,8.57
2019-01-31T11:05:07.554Z,8.65
2019-01-31T11:07:33.870Z,8.58
2019-01-31T11:10:00.337Z,8.59
2019-01-31T11:12:26.500Z,8.80
2019-01-31T11:14:52.809Z,8.62
2019-01-31T11:17:19.115Z,8.45
2019-01-31T11:19:45.634Z,8.30
2019-01-31T11:22:12.161Z,8.26
2019-01-31T11:24:38.566Z,8.30
2019-01-31T11:27:04.873Z,8.29
2019-01-31T11:29:31.236Z,8.23
2019-01-31T11:31:57.522Z,8.14
2019-01-31T11:34:32.803Z,7.93
2019-01-31T11:36:50.160Z,7.94
2019-01-31T11:39:16.471Z,8.01
2019-01-31T11:41:42.781Z,7.84
2019-01-31T11:44:09.084Z,7.90
2019-01-31T11:46:35.414Z,7.90
2019-01-31T11:49:01.715Z,7.93
2019-01-31T11:51:28.041Z,7.86
2019-01-31T11:53:54.356Z,7.86
2019-01-31T11:56:20.768Z,7.84
2019-01-31T11:58:46.989Z,7.72
2019-01-31T12:01:13.297Z,7.62
2019-01-31T12:03:39.609Z,7.74
2019-01-31T12:06:05.922Z,7.73
2019-01-31T12:08:32.251Z,7.75
2019-01-31T12:10:58.562Z,7.73
2019-01-31T12:13:24.875Z,7.72
2019-01-31T12:15:51.184Z,7.78
2019-01-31T12:18:17.488Z,7.79
2019-01-31T12:20:43.799Z,7.86
2019-01-31T12:23:10.114Z,7.99
2019-01-31T12:25:36.445Z,8.03
2019-01-31T12:28:02.783Z,8.01
2019-01-31T12:30:29.091Z,8.06
2019-01-31T12:32:55.424Z,7.94
2019-01-31T12:35:21.738Z,7.87
2019-01-31T12:37:48.049Z,7.81
2019-01-31T12:40:14.361Z,7.85
2019-01-31T12:42:40.677Z,7.94
2019-01-31T12:45:06.986Z,7.99
2019-01-31T12:47:33.468Z,7.95
2019-01-31T12:49:59.773Z,7.93
2019-01-31T12:52:26.085Z,7.84
2019-01-31T12:54:52.397Z,7.84
2019-01-31T12:57:18.703Z,7.75
2019-01-31T12:59:45.016Z,7.81
2019-01-31T13:02:11.331Z,7.91
2019-01-31T13:04:37.643Z,8.13
2019-01-31T13:07:03.948Z,8.34
2019-01-31T13:09:30.259Z,8.39
2019-01-31T13:11:56.570Z,8.54
2019-01-31T13:14:24.632Z,8.37
2019-01-31T13:16:50.937Z,8.24
2019-01-31T13:19:17.318Z,8.07
2019-01-31T13:21:43.599Z,8.01
2019-01-31T13:24:09.903Z,8.08
2019-01-31T13:26:36.209Z,8.16
2019-01-31T13:29:02.534Z,8.22
2019-01-31T13:31:28.842Z,8.01
2019-01-31T13:33:55.170Z,8.00
2019-01-31T13:36:21.482Z,8.04
2019-01-31T13:38:47.789Z,7.96
2019-01-31T13:41:14.418Z,7.86
2019-01-31T13:43:40.720Z,7.73
2019-01-31T13:46:07.054Z,7.60
2019-01-31T13:48:33.372Z,7.53
2019-01-31T13:50:59.694Z,7.40
2019-01-31T13:53:26.030Z,7.42
2019-01-31T13:55:52.361Z,7.46
2019-01-31T13:58:18.670Z,7.43
2019-01-31T14:00:44.977Z,7.43
2019-01-31T14:03:11.400Z,7.42
2019-01-31T14:05:37.713Z,7.48
2019-01-31T14:08:04.270Z,7.56
2019-01-31T14:10:30.588Z,7.60
2019-01-31T14:12:56.910Z,7.61
2019-01-31T14:15:33.063Z,7.68
2019-01-31T14:17:49.527Z,7.71
2019-01-31T14:20:15.845Z,7.79
2019-01-31T14:22:43.297Z,7.82
2019-01-31T14:25:08.460Z,7.80
2019-01-31T14:27:34.776Z,7.73
2019-01-31T14:30:01.123Z,7.75
2019-01-31T14:32:27.437Z,7.69
2019-01-31T14:34:53.772Z,7.63
2019-01-31T14:37:20.084Z,7.65
2019-01-31T14:39:46.415Z,7.63
2019-01-31T14:42:12.725Z,7.64
2019-01-31T14:44:39.030Z,7.68
2019-01-31T14:47:05.333Z,7.66
2019-01-31T14:49:31.658Z,7.69
2019-01-31T14:51:57.954Z,7.70
2019-01-31T14:54:24.286Z,7.71
2019-01-31T14:56:50.619Z,7.72
2019-01-31T14:59:16.932Z,7.58
2019-01-31T15:01:43.252Z,7.60
2019-01-31T15:04:09.562Z,7.61
2019-01-31T15:06:35.871Z,7.60
2019-01-31T15:09:02.199Z,7.65
2019-01-31T15:11:28.505Z,7.60
2019-01-31T15:13:54.813Z,7.56
2019-01-31T15:16:21.160Z,7.54
2019-01-31T15:18:47.436Z,7.46
2019-01-31T15:21:13.749Z,7.37
2019-01-31T15:23:40.061Z,7.37
2019-01-31T15:26:06.371Z,7.16
2019-01-31T15:28:32.684Z,6.24
2019-01-31T15:30:58.994Z,5.62
2019-01-31T15:33:25.311Z,5.09
2019-01-31T15:35:51.615Z,4.65
2019-01-31T15:38:17.925Z,4.34
2019-01-31T15:40:44.237Z,4.08
2019-01-31T15:43:10.547Z,3.90
2019-01-31T15:45:36.985Z,3.84
2019-01-31T15:48:03.173Z,3.73
2019-01-31T15:50:29.483Z,3.65
2019-01-31T15:52:55.788Z,3.69
2019-01-31T15:55:22.096Z,3.64
2019-01-31T15:57:48.407Z,3.52
2019-01-31T16:00:14.723Z,3.57
2019-01-31T16:02:41.031Z,3.54
2019-01-31T16:05:18.644Z,3.37
2019-01-31T16:07:33.659Z,3.32
2019-01-31T16:09:59.975Z,3.25
2019-01-31T16:12:26.276Z,3.31
2019-01-31T16:14:54.851Z,3.40
2019-01-31T16:17:18.901Z,3.46
2019-01-31T16:19:45.200Z,3.34
2019-01-31T16:22:11.508Z,3.37
2019-01-31T16:24:37.817Z,3.40
2019-01-31T16:27:04.129Z,3.50
2019-01-31T16:29:30.435Z,3.53
2019-01-31T16:31:56.748Z,3.44
2019-01-31T16:34:23.056Z,3.38
2019-01-31T16:36:49.364Z,3.45
2019-01-31T16:39:15.750Z,3.44
2019-01-31T16:41:42.058Z,3.47
2019-01-31T16:44:08.366Z,3.48
2019-01-31T16:46:36.498Z,3.50
2019-01-31T16:49:00.987Z,3.48
2019-01-31T16:51:27.297Z,3.58
2019-01-31T16:53:53.602Z,3.59
2019-01-31T16:56:19.913Z,3.59
2019-01-31T16:58:46.228Z,3.55
2019-01-31T17:01:12.536Z,3.52
2019-01-31T17:03:38.846Z,3.48
2019-01-31T17:06:05.202Z,3.52
2019-01-31T17:08:31.474Z,3.48
2019-01-31T17:10:57.776Z,3.48
2019-01-31T17:13:24.090Z,3.53
2019-01-31T17:15:50.400Z,3.54
2019-01-31T17:18:16.761Z,3.62
2019-01-31T17:20:43.106Z,3.65
2019-01-31T17:23:09.420Z,3.68
2019-01-31T17:25:35.734Z,3.69
2019-01-31T17:28:02.046Z,3.76
2019-01-31T17:30:28.363Z,3.77
2019-01-31T17:32:54.666Z,3.77
2019-01-31T17:35:21.354Z,3.76
2019-01-31T17:37:47.657Z,3.77
2019-01-31T17:40:16.547Z,3.80
2019-01-31T17:42:42.864Z,3.84
2019-01-31T17:45:09.175Z,3.81
2019-01-31T17:47:35.495Z,3.82
2019-01-31T17:50:01.814Z,3.83
2019-01-31T17:52:28.128Z,3.82
2019-01-31T17:54:56.099Z,3.85
2019-01-31T17:57:20.744Z,3.86
2019-01-31T17:59:47.057Z,3.85
2019-01-31T18:02:13.381Z,3.87
2019-01-31T18:04:39.689Z,3.79
2019-01-31T18:07:06.003Z,3.79
2019-01-31T18:09:32.309Z,3.80
2019-01-31T18:11:58.629Z,3.81
2019-01-31T18:14:24.937Z,3.89
2019-01-31T18:16:51.253Z,3.88
2019-01-31T18:19:17.560Z,3.86
2019-01-31T18:21:43.864Z,3.87
2019-01-31T18:24:12.718Z,3.87
2019-01-31T18:26:39.018Z,3.87
2019-01-31T18:29:05.326Z,3.98
2019-01-31T18:31:31.641Z,3.96
2019-01-31T18:33:57.962Z,3.93
2019-01-31T18:36:24.267Z,3.86
2019-01-31T18:38:50.573Z,3.82
2019-01-31T18:41:16.889Z,3.84
2019-01-31T18:43:43.193Z,3.81
2019-01-31T18:46:09.511Z,3.85
2019-01-31T18:48:35.814Z,3.76
2019-01-31T18:51:02.124Z,3.76
2019-01-31T18:53:28.432Z,3.76
2019-01-31T18:55:54.736Z,3.70
2019-01-31T18:58:21.051Z,3.64
2019-01-31T19:00:47.363Z,3.60
2019-01-31T19:03:13.688Z,3.64
2019-01-31T19:05:40.015Z,3.61
2019-01-31T19:08:08.873Z,3.63
2019-01-31T19:10:42.936Z,3.67
2019-01-31T19:12:58.942Z,3.70
2019-01-31T19:15:25.285Z,3.65
2019-01-31T19:17:51.594Z,3.59
2019-01-31T19:20:17.911Z,3.59
2019-01-31T19:22:44.219Z,3.49
2019-01-31T19:25:10.516Z,3.47
2019-01-31T19:27:36.826Z,3.43
2019-01-31T19:30:03.135Z,3.37
2019-01-31T19:32:29.482Z,3.27
2019-01-31T19:34:55.785Z,3.26
2019-01-31T19:37:22.093Z,3.19
2019-01-31T19:39:48.414Z,3.19
2019-01-31T19:42:14.723Z,3.15
2019-01-31T19:44:41.979Z,3.16
2019-01-31T19:47:07.346Z,3.75
2019-01-31T19:49:33.681Z,4.16
2019-01-31T19:51:59.985Z,4.52
2019-01-31T19:54:26.311Z,4.85
2019-01-31T19:56:52.616Z,4.08
2019-01-31T19:59:18.930Z,4.47
2019-01-31T20:01:45.238Z,4.49
2019-01-31T20:04:11.541Z,4.59
2019-01-31T20:06:37.853Z,4.19
2019-01-31T20:09:04.161Z,3.59
2019-01-31T20:11:30.468Z,3.33
2019-01-31T20:13:56.788Z,3.18
2019-01-31T20:16:28.891Z,3.14
2019-01-31T20:18:50.762Z,3.03
2019-01-31T20:21:15.716Z,3.00
2019-01-31T20:23:42.048Z,2.97
2019-01-31T20:26:08.360Z,2.88
2019-01-31T20:28:34.669Z,2.88
2019-01-31T20:31:00.976Z,2.81
2019-01-31T20:33:27.285Z,2.93
2019-01-31T20:35:53.600Z,2.92
2019-01-31T20:38:19.933Z,2.82
2019-01-31T20:40:46.244Z,2.73
2019-01-31T20:43:12.588Z,2.60
2019-01-31T20:45:38.870Z,2.55
2019-01-31T20:48:05.180Z,2.58
2019-01-31T20:50:31.489Z,2.68
2019-01-31T20:52:57.803Z,2.66
2019-01-31T20:55:24.110Z,2.61
2019-01-31T20:57:50.417Z,2.49
2019-01-31T21:00:16.726Z,2.41
2019-01-31T21:02:43.040Z,2.46
2019-01-31T21:05:09.369Z,2.46
2019-01-31T21:07:35.680Z,2.59
2019-01-31T21:10:01.999Z,2.73
2019-01-31T21:12:28.301Z,2.73
2019-01-31T21:14:54.604Z,2.86
2019-01-31T21:17:21.285Z,3.42
2019-01-31T21:19:47.592Z,3.57
2019-01-31T21:22:13.978Z,3.76
2019-01-31T21:24:40.216Z,3.53
2019-01-31T21:27:06.522Z,3.18
2019-01-31T21:29:32.833Z,3.31
2019-01-31T21:31:59.146Z,3.61
2019-01-31T21:34:25.457Z,3.77
2019-01-31T21:36:51.765Z,3.86
2019-01-31T21:39:18.078Z,3.67
2019-01-31T21:41:44.461Z,3.38
2019-01-31T21:44:10.771Z,3.44
2019-01-31T21:46:37.080Z,3.30
2019-01-31T21:49:03.388Z,3.31
2019-01-31T21:51:29.805Z,3.40
2019-01-31T21:53:56.043Z,3.01
2019-01-31T21:56:22.316Z,2.81
2019-01-31T21:58:48.626Z,2.78
2019-01-31T22:01:14.937Z,2.77
2019-01-31T22:03:43.299Z,2.73
2019-01-31T22:06:07.552Z,2.74
2019-01-31T22:08:33.873Z,2.60
2019-01-31T22:11:00.206Z,2.57
2019-01-31T22:13:26.627Z,2.67
2019-01-31T22:15:52.935Z,2.55
2019-01-31T22:18:19.308Z,2.54
2019-01-31T22:20:45.751Z,2.86
2019-01-31T22:23:12.082Z,2.92
2019-01-31T22:25:40.779Z,2.87
2019-01-31T22:28:04.700Z,2.88
2019-01-31T22:30:31.015Z,2.79
2019-01-31T22:32:57.328Z,2.82
2019-01-31T22:35:23.638Z,2.71
2019-01-31T22:37:49.947Z,2.44
2019-01-31T22:40:16.302Z,2.31
2019-01-31T22:42:42.582Z,2.18
2019-01-31T22:45:08.933Z,1.93
2019-01-31T22:47:35.324Z,2.07
2019-01-31T22:50:01.656Z,2.20
2019-01-31T22:52:27.952Z,2.07
2019-01-31T22:54:54.276Z,2.37
2019-01-31T22:57:20.602Z,2.20
2019-01-31T22:59:46.988Z,2.23
2019-01-31T23:02:13.295Z,2.41
2019-01-31T23:04:39.613Z,2.43
2019-01-31T23:07:05.920Z,2.38
2019-01-31T23:09:32.232Z,2.58
2019-01-31T23:11:58.561Z,2.09
2019-01-31T23:14:24.868Z,2.20
2019-01-31T23:16:51.171Z,2.06
2019-01-31T23:19:17.484Z,2.24
2019-01-31T23:21:43.788Z,1.90
2019-01-31T23:24:10.116Z,1.82
2019-01-31T23:26:36.634Z,2.06
2019-01-31T23:29:02.841Z,2.04
2019-01-31T23:31:29.044Z,1.96
2019-01-31T23:33:55.355Z,2.10
2019-01-31T23:36:21.663Z,2.09
2019-01-31T23:38:47.976Z,1.77
2019-01-31T23:41:14.285Z,2.06
2019-01-31T23:43:43.129Z,1.79
2019-01-31T23:46:07.077Z,1.78
2019-01-31T23:48:33.421Z,1.73
2019-01-31T23:50:59.728Z,1.75
2019-01-31T23:53:26.041Z,1.79
2019-01-31T23:55:52.427Z,1.93
2019-01-31T23:58:18.735Z,1.92
